Savannah, Georgia
Current Conditions -  °F | °C
As of 9:58 AM on Friday 19 Dec 2014 (Local Time) from KSVN Reporting Station
Clear Clear  
Wind Chill: 57°   Ceiling: Unl
Heat Index: 57°   Visibility: 10mi
Dew Point: 41°   Wind: 3mph
Humidity: 54%   Direction: 350°N
Pressure: 30.14"   Gusts: NA
Location:  32.08°N, 81.09°W
Report Text: KSVN 191458Z AUTO 35003KT 10SM CLR 14/05 A3014 RMK AO2 SLP209 T01400049 51013
Loading
Personal Weather Stations






























Interactive Weather Map New forecast layout! Learn more

10-Day Weather Forecast

Advertisements
Track Severe Weather on mobile